Terminal Aerodrome Forecast
Issued by NWS

Home | Current Version | Previous Version | Graphics & Text | Print | Product List | Glossary On
Versions: 1 2 3 4 5 6 7 8 9 10 11 12 13 14 15 16 17 18 19
000
FTUS41 KCLE 240300 AAA
TAFFDY
TAF AMD
KFDY 240327Z 2403/2424 15018G28KT 5SM -SHRA SCT006 OVC015
      TEMPO 2403/2405 2SM -SHRA OVC006
     FM240500 14015G25KT 4SM -SHRA OVC006
     FM241000 20015G25KT P6SM VCSH BKN012 OVC020
     FM241600 25028G40KT P6SM OVC025
      TEMPO 2416/2418 3SM -SHRA=

USA.gov is the U.S. government's official web portal to all federal, state and local government web resources and services.